sensor_id;sensor_type;location;lat;lon;timestamp;temperature;humidity
9305;DHT22;4690;52.422;13.486;2022-08-16T00:04:45;18.90;99.90
9305;DHT22;4690;52.422;13.486;2022-08-16T00:07:14;19.00;99.90
9305;DHT22;4690;52.422;13.486;2022-08-16T00:09:40;19.00;99.90
9305;DHT22;4690;52.422;13.486;2022-08-16T00:12:06;19.00;99.90
9305;DHT22;4690;52.422;13.486;2022-08-16T00:14:32;19.00;99.90
9305;DHT22;4690;52.422;13.486;2022-08-16T00:16:59;19.00;99.90
9305;DHT22;4690;52.422;13.486;2022-08-16T00:19:30;18.90;99.90
9305;DHT22;4690;52.422;13.486;2022-08-16T00:21:58;18.90;99.90
9305;DHT22;4690;52.422;13.486;2022-08-16T00:24:25;18.90;99.90
9305;DHT22;4690;52.422;13.486;2022-08-16T00:26:53;18.90;99.90
9305;DHT22;4690;52.422;13.486;2022-08-16T00:29:20;18.90;99.90
9305;DHT22;4690;52.422;13.486;2022-08-16T00:31:48;18.80;99.90
9305;DHT22;4690;52.422;13.486;2022-08-16T00:34:19;18.80;99.90
9305;DHT22;4690;52.422;13.486;2022-08-16T00:36:46;18.80;99.90
9305;DHT22;4690;52.422;13.486;2022-08-16T00:39:14;18.70;99.90
9305;DHT22;4690;52.422;13.486;2022-08-16T00:41:42;18.80;99.90
9305;DHT22;4690;52.422;13.486;2022-08-16T00:44:09;18.80;99.90
9305;DHT22;4690;52.422;13.486;2022-08-16T00:46:50;18.70;99.90
9305;DHT22;4690;52.422;13.486;2022-08-16T00:49:21;18.70;99.90
9305;DHT22;4690;52.422;13.486;2022-08-16T00:51:48;18.70;99.90
9305;DHT22;4690;52.422;13.486;2022-08-16T00:54:15;18.60;99.90
9305;DHT22;4690;52.422;13.486;2022-08-16T00:56:43;18.70;99.90
9305;DHT22;4690;52.422;13.486;2022-08-16T00:59:13;18.60;99.90
9305;DHT22;4690;52.422;13.486;2022-08-16T01:01:40;18.60;99.90
9305;DHT22;4690;52.422;13.486;2022-08-16T01:04:09;18.60;99.90
9305;DHT22;4690;52.422;13.486;2022-08-16T01:06:37;18.60;99.90
9305;DHT22;4690;52.422;13.486;2022-08-16T01:09:05;18.60;99.90
9305;DHT22;4690;52.422;13.486;2022-08-16T01:11:34;18.60;99.90
9305;DHT22;4690;52.422;13.486;2022-08-16T01:14:25;18.50;99.90
9305;DHT22;4690;52.422;13.486;2022-08-16T01:17:01;18.50;99.90
9305;DHT22;4690;52.422;13.486;2022-08-16T01:19:49;18.50;99.90
9305;DHT22;4690;52.422;13.486;2022-08-16T01:22:30;18.50;99.90
9305;DHT22;4690;52.422;13.486;2022-08-16T01:25:10;18.50;99.90
9305;DHT22;4690;52.422;13.486;2022-08-16T01:27:44;18.40;99.90
9305;DHT22;4690;52.422;13.486;2022-08-16T01:30:30;18.40;99.90
9305;DHT22;4690;52.422;13.486;2022-08-16T01:33:02;18.40;99.90
9305;DHT22;4690;52.422;13.486;2022-08-16T01:35:33;18.40;99.90
9305;DHT22;4690;52.422;13.486;2022-08-16T01:40:50;18.40;99.90
9305;DHT22;4690;52.422;13.486;2022-08-16T01:43:19;18.30;99.90
9305;DHT22;4690;52.422;13.486;2022-08-16T01:45:46;18.30;99.90
9305;DHT22;4690;52.422;13.486;2022-08-16T01:48:12;18.30;99.90
9305;DHT22;4690;52.422;13.486;2022-08-16T01:50:40;18.20;99.90
9305;DHT22;4690;52.422;13.486;2022-08-16T01:53:09;18.20;99.90
9305;DHT22;4690;52.422;13.486;2022-08-16T01:55:35;18.20;99.90
9305;DHT22;4690;52.422;13.486;2022-08-16T01:58:01;18.10;99.90
9305;DHT22;4690;52.422;13.486;2022-08-16T02:00:27;18.10;99.90
9305;DHT22;4690;52.422;13.486;2022-08-16T02:02:53;18.10;99.90
9305;DHT22;4690;52.422;13.486;2022-08-16T02:05:19;18.10;99.90
9305;DHT22;4690;52.422;13.486;2022-08-16T02:07:45;18.10;99.90
9305;DHT22;4690;52.422;13.486;2022-08-16T02:10:11;18.00;99.90
9305;DHT22;4690;52.422;13.486;2022-08-16T02:12:37;18.00;99.90
9305;DHT22;4690;52.422;13.486;2022-08-16T02:15:04;18.00;99.90
9305;DHT22;4690;52.422;13.486;2022-08-16T02:17:31;18.00;99.90
9305;DHT22;4690;52.422;13.486;2022-08-16T02:19:57;17.90;99.90
9305;DHT22;4690;52.422;13.486;2022-08-16T02:22:24;17.90;99.90
9305;DHT22;4690;52.422;13.486;2022-08-16T02:24:50;17.90;99.90
9305;DHT22;4690;52.422;13.486;2022-08-16T02:27:16;17.90;99.90
9305;DHT22;4690;52.422;13.486;2022-08-16T02:29:42;18.00;99.90
9305;DHT22;4690;52.422;13.486;2022-08-16T02:32:11;18.00;99.90
9305;DHT22;4690;52.422;13.486;2022-08-16T02:34:39;17.90;99.90
9305;DHT22;4690;52.422;13.486;2022-08-16T02:37:04;17.90;99.90
9305;DHT22;4690;52.422;13.486;2022-08-16T02:39:30;17.80;99.90
9305;DHT22;4690;52.422;13.486;2022-08-16T02:41:56;17.90;99.90
9305;DHT22;4690;52.422;13.486;2022-08-16T02:44:22;17.90;99.90
9305;DHT22;4690;52.422;13.486;2022-08-16T02:46:48;18.00;99.90
9305;DHT22;4690;52.422;13.486;2022-08-16T02:49:14;17.90;99.90
9305;DHT22;4690;52.422;13.486;2022-08-16T02:51:41;17.80;99.90
9305;DHT22;4690;52.422;13.486;2022-08-16T02:54:09;17.80;99.90
9305;DHT22;4690;52.422;13.486;2022-08-16T02:56:35;17.80;99.90
9305;DHT22;4690;52.422;13.486;2022-08-16T02:59:02;17.80;99.90
9305;DHT22;4690;52.422;13.486;2022-08-16T03:01:30;17.70;99.90
9305;DHT22;4690;52.422;13.486;2022-08-16T03:03:58;17.80;99.90
9305;DHT22;4690;52.422;13.486;2022-08-16T03:06:25;17.70;99.90
9305;DHT22;4690;52.422;13.486;2022-08-16T03:08:52;17.70;99.90
9305;DHT22;4690;52.422;13.486;2022-08-16T03:11:19;17.70;99.90
9305;DHT22;4690;52.422;13.486;2022-08-16T03:13:48;17.60;99.90
9305;DHT22;4690;52.422;13.486;2022-08-16T03:16:16;17.60;99.90
9305;DHT22;4690;52.422;13.486;2022-08-16T03:18:42;17.50;99.90
9305;DHT22;4690;52.422;13.486;2022-08-16T03:21:08;17.60;99.90
9305;DHT22;4690;52.422;13.486;2022-08-16T03:23:34;17.50;99.90
9305;DHT22;4690;52.422;13.486;2022-08-16T03:26:01;17.60;99.90
9305;DHT22;4690;52.422;13.486;2022-08-16T03:28:26;17.60;99.90
9305;DHT22;4690;52.422;13.486;2022-08-16T03:30:52;17.50;99.90
9305;DHT22;4690;52.422;13.486;2022-08-16T03:33:20;17.50;99.90
9305;DHT22;4690;52.422;13.486;2022-08-16T03:35:46;17.50;99.90
9305;DHT22;4690;52.422;13.486;2022-08-16T03:38:13;17.40;99.90
9305;DHT22;4690;52.422;13.486;2022-08-16T03:40:41;17.50;99.90
9305;DHT22;4690;52.422;13.486;2022-08-16T03:43:08;17.40;99.90
9305;DHT22;4690;52.422;13.486;2022-08-16T03:45:36;17.40;99.90
9305;DHT22;4690;52.422;13.486;2022-08-16T03:48:07;17.40;99.90
9305;DHT22;4690;52.422;13.486;2022-08-16T03:50:34;17.40;99.90
9305;DHT22;4690;52.422;13.486;2022-08-16T03:53:01;17.40;99.90
9305;DHT22;4690;52.422;13.486;2022-08-16T03:55:28;17.40;99.90
9305;DHT22;4690;52.422;13.486;2022-08-16T03:57:53;17.40;99.90
9305;DHT22;4690;52.422;13.486;2022-08-16T04:00:23;17.30;99.90
9305;DHT22;4690;52.422;13.486;2022-08-16T04:02:52;17.40;99.90
9305;DHT22;4690;52.422;13.486;2022-08-16T04:05:20;17.40;99.90
9305;DHT22;4690;52.422;13.486;2022-08-16T04:07:46;17.40;99.90
9305;DHT22;4690;52.422;13.486;2022-08-16T04:10:13;17.40;99.90
9305;DHT22;4690;52.422;13.486;2022-08-16T04:12:40;17.40;99.90
9305;DHT22;4690;52.422;13.486;2022-08-16T04:15:09;17.40;99.90
9305;DHT22;4690;52.422;13.486;2022-08-16T04:17:37;17.40;99.90
9305;DHT22;4690;52.422;13.486;2022-08-16T04:20:05;17.40;99.90
9305;DHT22;4690;52.422;13.486;2022-08-16T04:22:35;17.50;99.90
9305;DHT22;4690;52.422;13.486;2022-08-16T04:25:05;17.50;99.90
9305;DHT22;4690;52.422;13.486;2022-08-16T04:27:31;17.40;99.90
9305;DHT22;4690;52.422;13.486;2022-08-16T04:29:58;17.50;99.90
9305;DHT22;4690;52.422;13.486;2022-08-16T04:32:25;17.40;99.90
9305;DHT22;4690;52.422;13.486;2022-08-16T04:34:51;17.40;99.90
9305;DHT22;4690;52.422;13.486;2022-08-16T04:37:17;17.50;99.90
9305;DHT22;4690;52.422;13.486;2022-08-16T04:39:42;17.50;99.90
9305;DHT22;4690;52.422;13.486;2022-08-16T04:42:08;17.60;99.90
9305;DHT22;4690;52.422;13.486;2022-08-16T04:44:34;17.60;99.90
9305;DHT22;4690;52.422;13.486;2022-08-16T04:47:00;17.60;99.90
9305;DHT22;4690;52.422;13.486;2022-08-16T04:49:26;17.60;99.90
9305;DHT22;4690;52.422;13.486;2022-08-16T04:51:51;17.70;99.90
9305;DHT22;4690;52.422;13.486;2022-08-16T04:54:17;17.80;99.90
9305;DHT22;4690;52.422;13.486;2022-08-16T04:56:43;17.80;99.90
9305;DHT22;4690;52.422;13.486;2022-08-16T04:59:09;17.70;99.90
9305;DHT22;4690;52.422;13.486;2022-08-16T05:01:36;17.80;99.90
9305;DHT22;4690;52.422;13.486;2022-08-16T05:04:03;17.80;99.90
9305;DHT22;4690;52.422;13.486;2022-08-16T05:06:29;17.90;99.90
9305;DHT22;4690;52.422;13.486;2022-08-16T05:08:56;18.00;99.90
9305;DHT22;4690;52.422;13.486;2022-08-16T05:11:22;18.10;99.90
9305;DHT22;4690;52.422;13.486;2022-08-16T05:13:50;18.10;99.90
9305;DHT22;4690;52.422;13.486;2022-08-16T05:16:28;18.20;99.90
9305;DHT22;4690;52.422;13.486;2022-08-16T05:18:57;18.20;99.90
9305;DHT22;4690;52.422;13.486;2022-08-16T05:21:26;18.30;99.90
9305;DHT22;4690;52.422;13.486;2022-08-16T05:23:54;18.30;99.90
9305;DHT22;4690;52.422;13.486;2022-08-16T05:26:23;18.40;99.90
9305;DHT22;4690;52.422;13.486;2022-08-16T05:28:51;18.50;99.90
9305;DHT22;4690;52.422;13.486;2022-08-16T05:31:17;18.50;99.90
9305;DHT22;4690;52.422;13.486;2022-08-16T05:33:43;18.50;99.90
9305;DHT22;4690;52.422;13.486;2022-08-16T05:36:09;18.60;99.90
9305;DHT22;4690;52.422;13.486;2022-08-16T05:38:35;18.70;99.90
9305;DHT22;4690;52.422;13.486;2022-08-16T05:41:02;18.70;99.90
9305;DHT22;4690;52.422;13.486;2022-08-16T05:43:29;18.60;99.90
9305;DHT22;4690;52.422;13.486;2022-08-16T05:45:56;18.70;99.90
9305;DHT22;4690;52.422;13.486;2022-08-16T05:48:23;18.90;99.90
9305;DHT22;4690;52.422;13.486;2022-08-16T05:50:49;18.90;99.90
9305;DHT22;4690;52.422;13.486;2022-08-16T05:53:15;19.00;99.90
9305;DHT22;4690;52.422;13.486;2022-08-16T05:55:42;19.20;99.90
9305;DHT22;4690;52.422;13.486;2022-08-16T05:58:10;19.20;99.90
9305;DHT22;4690;52.422;13.486;2022-08-16T06:00:36;19.30;99.90
9305;DHT22;4690;52.422;13.486;2022-08-16T06:03:02;19.40;99.90
9305;DHT22;4690;52.422;13.486;2022-08-16T06:05:29;19.50;99.90
9305;DHT22;4690;52.422;13.486;2022-08-16T06:07:55;19.50;99.90
9305;DHT22;4690;52.422;13.486;2022-08-16T06:10:20;19.60;99.90
9305;DHT22;4690;52.422;13.486;2022-08-16T06:12:46;19.60;99.90
9305;DHT22;4690;52.422;13.486;2022-08-16T06:15:15;19.80;99.90
9305;DHT22;4690;52.422;13.486;2022-08-16T06:17:43;20.00;99.90
9305;DHT22;4690;52.422;13.486;2022-08-16T06:20:15;20.20;99.90
9305;DHT22;4690;52.422;13.486;2022-08-16T06:22:43;20.30;99.90
9305;DHT22;4690;52.422;13.486;2022-08-16T06:25:10;20.50;99.90
9305;DHT22;4690;52.422;13.486;2022-08-16T06:27:37;20.60;99.90
9305;DHT22;4690;52.422;13.486;2022-08-16T06:30:08;20.70;99.90
9305;DHT22;4690;52.422;13.486;2022-08-16T06:32:35;21.00;99.90
9305;DHT22;4690;52.422;13.486;2022-08-16T06:35:01;21.10;99.90
9305;DHT22;4690;52.422;13.486;2022-08-16T06:37:27;21.20;99.90
9305;DHT22;4690;52.422;13.486;2022-08-16T06:39:53;21.20;99.90
9305;DHT22;4690;52.422;13.486;2022-08-16T06:42:18;21.40;99.90
9305;DHT22;4690;52.422;13.486;2022-08-16T06:44:44;21.50;99.90
9305;DHT22;4690;52.422;13.486;2022-08-16T06:47:10;21.70;99.90
9305;DHT22;4690;52.422;13.486;2022-08-16T06:49:38;21.80;99.90
9305;DHT22;4690;52.422;13.486;2022-08-16T06:52:33;21.90;99.90
9305;DHT22;4690;52.422;13.486;2022-08-16T06:55:22;21.90;99.90
9305;DHT22;4690;52.422;13.486;2022-08-16T06:57:47;22.10;99.90
9305;DHT22;4690;52.422;13.486;2022-08-16T07:00:15;22.00;99.90
9305;DHT22;4690;52.422;13.486;2022-08-16T07:02:42;22.10;99.90
9305;DHT22;4690;52.422;13.486;2022-08-16T07:05:10;22.10;99.90
9305;DHT22;4690;52.422;13.486;2022-08-16T07:07:39;22.20;99.90
9305;DHT22;4690;52.422;13.486;2022-08-16T07:10:06;22.10;99.90
9305;DHT22;4690;52.422;13.486;2022-08-16T07:12:34;22.10;99.90
9305;DHT22;4690;52.422;13.486;2022-08-16T07:15:01;22.30;99.90
9305;DHT22;4690;52.422;13.486;2022-08-16T07:17:29;22.40;99.90
9305;DHT22;4690;52.422;13.486;2022-08-16T07:19:56;22.60;99.90
9305;DHT22;4690;52.422;13.486;2022-08-16T07:22:22;22.70;99.90
9305;DHT22;4690;52.422;13.486;2022-08-16T07:24:48;22.80;99.90
9305;DHT22;4690;52.422;13.486;2022-08-16T07:27:14;23.10;99.90
9305;DHT22;4690;52.422;13.486;2022-08-16T07:29:40;23.10;99.90
9305;DHT22;4690;52.422;13.486;2022-08-16T07:32:06;23.30;99.90
9305;DHT22;4690;52.422;13.486;2022-08-16T07:34:32;23.20;99.90
9305;DHT22;4690;52.422;13.486;2022-08-16T07:37:08;23.50;99.90
9305;DHT22;4690;52.422;13.486;2022-08-16T07:39:36;23.80;99.90
9305;DHT22;4690;52.422;13.486;2022-08-16T07:42:03;23.60;99.90
9305;DHT22;4690;52.422;13.486;2022-08-16T07:44:29;23.60;99.90
9305;DHT22;4690;52.422;13.486;2022-08-16T07:46:55;23.90;99.90
9305;DHT22;4690;52.422;13.486;2022-08-16T07:49:21;23.90;99.90
9305;DHT22;4690;52.422;13.486;2022-08-16T07:51:48;24.00;99.90
9305;DHT22;4690;52.422;13.486;2022-08-16T07:54:15;24.00;99.90
9305;DHT22;4690;52.422;13.486;2022-08-16T07:56:42;24.10;99.90
9305;DHT22;4690;52.422;13.486;2022-08-16T07:59:08;24.30;99.90
9305;DHT22;4690;52.422;13.486;2022-08-16T08:01:35;24.40;99.90
9305;DHT22;4690;52.422;13.486;2022-08-16T08:04:03;24.40;99.90
9305;DHT22;4690;52.422;13.486;2022-08-16T08:06:30;24.40;99.90
9305;DHT22;4690;52.422;13.486;2022-08-16T08:08:57;24.60;99.90
9305;DHT22;4690;52.422;13.486;2022-08-16T08:11:36;24.80;99.90
9305;DHT22;4690;52.422;13.486;2022-08-16T08:14:03;24.80;99.90
9305;DHT22;4690;52.422;13.486;2022-08-16T08:16:29;24.70;99.90
9305;DHT22;4690;52.422;13.486;2022-08-16T08:18:57;24.70;99.90
9305;DHT22;4690;52.422;13.486;2022-08-16T08:21:25;24.80;99.90
9305;DHT22;4690;52.422;13.486;2022-08-16T08:23:52;24.90;99.90
9305;DHT22;4690;52.422;13.486;2022-08-16T08:26:17;24.70;99.90
9305;DHT22;4690;52.422;13.486;2022-08-16T08:28:44;24.80;99.90
9305;DHT22;4690;52.422;13.486;2022-08-16T08:31:12;25.10;99.90
9305;DHT22;4690;52.422;13.486;2022-08-16T08:33:37;25.20;99.90
9305;DHT22;4690;52.422;13.486;2022-08-16T08:36:05;25.40;99.90
9305;DHT22;4690;52.422;13.486;2022-08-16T08:38:33;25.50;99.90
9305;DHT22;4690;52.422;13.486;2022-08-16T08:41:01;25.60;99.90
9305;DHT22;4690;52.422;13.486;2022-08-16T08:43:28;25.70;99.90
9305;DHT22;4690;52.422;13.486;2022-08-16T08:45:54;25.60;99.90
9305;DHT22;4690;52.422;13.486;2022-08-16T08:48:20;25.70;99.90
9305;DHT22;4690;52.422;13.486;2022-08-16T08:50:46;25.90;99.90
9305;DHT22;4690;52.422;13.486;2022-08-16T08:53:12;26.00;99.90
9305;DHT22;4690;52.422;13.486;2022-08-16T08:55:38;26.20;99.90
9305;DHT22;4690;52.422;13.486;2022-08-16T08:58:03;26.30;99.90
9305;DHT22;4690;52.422;13.486;2022-08-16T09:00:29;26.50;99.90
9305;DHT22;4690;52.422;13.486;2022-08-16T09:02:55;26.20;99.90
9305;DHT22;4690;52.422;13.486;2022-08-16T09:05:23;26.60;99.90
9305;DHT22;4690;52.422;13.486;2022-08-16T09:07:53;26.70;99.90
9305;DHT22;4690;52.422;13.486;2022-08-16T09:10:21;26.50;99.90
9305;DHT22;4690;52.422;13.486;2022-08-16T09:12:47;26.50;99.90
9305;DHT22;4690;52.422;13.486;2022-08-16T09:15:14;26.50;99.90
9305;DHT22;4690;52.422;13.486;2022-08-16T09:17:41;26.80;99.90
9305;DHT22;4690;52.422;13.486;2022-08-16T09:20:08;27.00;99.90
9305;DHT22;4690;52.422;13.486;2022-08-16T09:22:38;27.30;99.90
9305;DHT22;4690;52.422;13.486;2022-08-16T09:25:04;27.50;99.90
9305;DHT22;4690;52.422;13.486;2022-08-16T09:27:33;27.40;99.90
9305;DHT22;4690;52.422;13.486;2022-08-16T09:29:59;27.20;99.90
9305;DHT22;4690;52.422;13.486;2022-08-16T09:32:24;27.00;99.90
9305;DHT22;4690;52.422;13.486;2022-08-16T09:34:53;27.00;99.90
9305;DHT22;4690;52.422;13.486;2022-08-16T09:37:19;27.10;99.90
9305;DHT22;4690;52.422;13.486;2022-08-16T09:39:44;26.90;99.90
9305;DHT22;4690;52.422;13.486;2022-08-16T09:42:10;27.20;99.90
9305;DHT22;4690;52.422;13.486;2022-08-16T09:44:39;27.10;99.90
9305;DHT22;4690;52.422;13.486;2022-08-16T09:47:06;27.20;99.90
9305;DHT22;4690;52.422;13.486;2022-08-16T09:49:31;27.40;99.90
9305;DHT22;4690;52.422;13.486;2022-08-16T09:51:57;27.70;99.90
9305;DHT22;4690;52.422;13.486;2022-08-16T09:54:25;27.70;99.90
9305;DHT22;4690;52.422;13.486;2022-08-16T09:56:52;27.70;99.90
9305;DHT22;4690;52.422;13.486;2022-08-16T09:59:18;27.70;99.90
9305;DHT22;4690;52.422;13.486;2022-08-16T10:01:45;27.90;99.90
9305;DHT22;4690;52.422;13.486;2022-08-16T10:04:13;28.20;99.90
9305;DHT22;4690;52.422;13.486;2022-08-16T10:06:40;28.10;99.90
9305;DHT22;4690;52.422;13.486;2022-08-16T10:09:08;28.30;99.90
9305;DHT22;4690;52.422;13.486;2022-08-16T10:11:35;28.30;99.90
9305;DHT22;4690;52.422;13.486;2022-08-16T10:14:20;28.10;99.90
9305;DHT22;4690;52.422;13.486;2022-08-16T10:16:47;28.00;99.90
9305;DHT22;4690;52.422;13.486;2022-08-16T10:19:15;27.90;99.90
9305;DHT22;4690;52.422;13.486;2022-08-16T10:21:42;28.20;99.90
9305;DHT22;4690;52.422;13.486;2022-08-16T10:24:09;28.50;99.90
9305;DHT22;4690;52.422;13.486;2022-08-16T10:26:36;28.40;99.90
9305;DHT22;4690;52.422;13.486;2022-08-16T10:29:03;28.30;99.90
9305;DHT22;4690;52.422;13.486;2022-08-16T10:31:30;28.70;99.90
9305;DHT22;4690;52.422;13.486;2022-08-16T10:33:57;28.70;99.90
9305;DHT22;4690;52.422;13.486;2022-08-16T10:36:23;28.90;99.90
9305;DHT22;4690;52.422;13.486;2022-08-16T10:38:48;28.80;99.90
9305;DHT22;4690;52.422;13.486;2022-08-16T10:41:14;28.90;99.90
9305;DHT22;4690;52.422;13.486;2022-08-16T10:43:41;29.20;99.90
9305;DHT22;4690;52.422;13.486;2022-08-16T10:46:10;29.20;99.90
9305;DHT22;4690;52.422;13.486;2022-08-16T10:48:38;29.20;99.90
9305;DHT22;4690;52.422;13.486;2022-08-16T10:51:05;29.50;99.90
9305;DHT22;4690;52.422;13.486;2022-08-16T10:53:32;29.20;99.90
9305;DHT22;4690;52.422;13.486;2022-08-16T10:56:03;29.40;99.90
9305;DHT22;4690;52.422;13.486;2022-08-16T10:58:32;29.30;99.90
9305;DHT22;4690;52.422;13.486;2022-08-16T11:00:58;29.00;99.90
9305;DHT22;4690;52.422;13.486;2022-08-16T11:03:24;28.90;99.90
9305;DHT22;4690;52.422;13.486;2022-08-16T11:05:53;28.80;99.90
9305;DHT22;4690;52.422;13.486;2022-08-16T11:08:18;29.00;99.90
9305;DHT22;4690;52.422;13.486;2022-08-16T11:10:45;29.20;99.90
9305;DHT22;4690;52.422;13.486;2022-08-16T11:13:23;29.50;99.90
9305;DHT22;4690;52.422;13.486;2022-08-16T11:15:52;29.60;99.90
9305;DHT22;4690;52.422;13.486;2022-08-16T11:18:19;29.70;99.90
9305;DHT22;4690;52.422;13.486;2022-08-16T11:20:48;29.60;99.90
9305;DHT22;4690;52.422;13.486;2022-08-16T11:23:14;29.30;99.90
9305;DHT22;4690;52.422;13.486;2022-08-16T11:25:40;29.60;99.90
9305;DHT22;4690;52.422;13.486;2022-08-16T11:28:08;29.50;99.90
9305;DHT22;4690;52.422;13.486;2022-08-16T11:30:34;29.70;99.90
9305;DHT22;4690;52.422;13.486;2022-08-16T11:33:01;29.80;99.90
9305;DHT22;4690;52.422;13.486;2022-08-16T11:35:29;30.20;99.90
9305;DHT22;4690;52.422;13.486;2022-08-16T11:38:10;30.30;99.90
9305;DHT22;4690;52.422;13.486;2022-08-16T11:40:50;30.10;99.90
9305;DHT22;4690;52.422;13.486;2022-08-16T11:43:24;30.30;99.90
9305;DHT22;4690;52.422;13.486;2022-08-16T11:45:53;30.20;99.90
9305;DHT22;4690;52.422;13.486;2022-08-16T11:48:25;30.20;99.90
9305;DHT22;4690;52.422;13.486;2022-08-16T11:50:53;30.00;99.90
9305;DHT22;4690;52.422;13.486;2022-08-16T11:53:20;29.90;99.90
9305;DHT22;4690;52.422;13.486;2022-08-16T11:55:46;29.80;99.90
9305;DHT22;4690;52.422;13.486;2022-08-16T11:58:13;29.80;99.90
9305;DHT22;4690;52.422;13.486;2022-08-16T12:00:41;29.90;99.90
9305;DHT22;4690;52.422;13.486;2022-08-16T12:03:08;29.90;99.90
9305;DHT22;4690;52.422;13.486;2022-08-16T12:05:35;30.00;99.90
9305;DHT22;4690;52.422;13.486;2022-08-16T12:08:03;30.00;99.90
9305;DHT22;4690;52.422;13.486;2022-08-16T12:10:31;30.30;99.90
9305;DHT22;4690;52.422;13.486;2022-08-16T12:12:57;30.70;99.90
9305;DHT22;4690;52.422;13.486;2022-08-16T12:15:23;30.70;99.90
9305;DHT22;4690;52.422;13.486;2022-08-16T12:17:51;30.70;99.90
9305;DHT22;4690;52.422;13.486;2022-08-16T12:20:22;30.60;99.90
9305;DHT22;4690;52.422;13.486;2022-08-16T12:22:51;30.10;99.90
9305;DHT22;4690;52.422;13.486;2022-08-16T12:25:19;30.00;99.90
9305;DHT22;4690;52.422;13.486;2022-08-16T12:27:47;30.20;99.90
9305;DHT22;4690;52.422;13.486;2022-08-16T12:30:18;30.40;99.90
9305;DHT22;4690;52.422;13.486;2022-08-16T12:32:49;30.60;99.90
9305;DHT22;4690;52.422;13.486;2022-08-16T12:35:18;30.60;99.90
9305;DHT22;4690;52.422;13.486;2022-08-16T12:37:46;30.70;99.90
9305;DHT22;4690;52.422;13.486;2022-08-16T12:40:16;30.70;99.90
9305;DHT22;4690;52.422;13.486;2022-08-16T12:42:47;30.80;99.90
9305;DHT22;4690;52.422;13.486;2022-08-16T12:45:16;30.70;99.90
9305;DHT22;4690;52.422;13.486;2022-08-16T12:47:43;30.60;99.90
9305;DHT22;4690;52.422;13.486;2022-08-16T12:50:28;30.60;99.90
9305;DHT22;4690;52.422;13.486;2022-08-16T12:52:54;30.60;99.90
9305;DHT22;4690;52.422;13.486;2022-08-16T12:55:21;30.20;99.90
9305;DHT22;4690;52.422;13.486;2022-08-16T12:57:50;30.00;99.90
9305;DHT22;4690;52.422;13.486;2022-08-16T13:00:17;29.80;99.90
9305;DHT22;4690;52.422;13.486;2022-08-16T13:02:44;29.50;99.90
9305;DHT22;4690;52.422;13.486;2022-08-16T13:05:12;29.40;99.90
9305;DHT22;4690;52.422;13.486;2022-08-16T13:07:39;29.20;99.90
9305;DHT22;4690;52.422;13.486;2022-08-16T13:10:08;29.20;99.90
9305;DHT22;4690;52.422;13.486;2022-08-16T13:12:46;29.30;99.90
9305;DHT22;4690;52.422;13.486;2022-08-16T13:15:19;29.40;99.90
9305;DHT22;4690;52.422;13.486;2022-08-16T13:17:48;29.30;99.90
9305;DHT22;4690;52.422;13.486;2022-08-16T13:20:17;29.50;99.90
9305;DHT22;4690;52.422;13.486;2022-08-16T13:23:20;30.00;99.90
9305;DHT22;4690;52.422;13.486;2022-08-16T13:25:41;30.40;99.90
9305;DHT22;4690;52.422;13.486;2022-08-16T13:28:09;30.40;99.90
9305;DHT22;4690;52.422;13.486;2022-08-16T13:30:40;30.80;99.90
9305;DHT22;4690;52.422;13.486;2022-08-16T13:33:14;30.70;99.90
9305;DHT22;4690;52.422;13.486;2022-08-16T13:35:45;30.70;99.90
9305;DHT22;4690;52.422;13.486;2022-08-16T13:38:13;30.90;99.90
9305;DHT22;4690;52.422;13.486;2022-08-16T13:40:39;31.10;99.90
9305;DHT22;4690;52.422;13.486;2022-08-16T13:43:06;31.00;99.90
9305;DHT22;4690;52.422;13.486;2022-08-16T13:45:31;30.70;99.90
9305;DHT22;4690;52.422;13.486;2022-08-16T13:47:58;30.70;99.90
9305;DHT22;4690;52.422;13.486;2022-08-16T13:50:24;30.80;99.90
9305;DHT22;4690;52.422;13.486;2022-08-16T13:52:55;30.90;99.90
9305;DHT22;4690;52.422;13.486;2022-08-16T13:55:21;31.00;99.90
9305;DHT22;4690;52.422;13.486;2022-08-16T13:57:47;30.80;99.90
9305;DHT22;4690;52.422;13.486;2022-08-16T14:00:14;31.00;99.90
9305;DHT22;4690;52.422;13.486;2022-08-16T14:02:42;31.10;99.90
9305;DHT22;4690;52.422;13.486;2022-08-16T14:05:10;30.90;99.90
9305;DHT22;4690;52.422;13.486;2022-08-16T14:07:36;30.80;99.90
9305;DHT22;4690;52.422;13.486;2022-08-16T14:10:08;30.50;99.90
9305;DHT22;4690;52.422;13.486;2022-08-16T14:12:36;30.40;99.90
9305;DHT22;4690;52.422;13.486;2022-08-16T14:15:10;30.40;99.90
9305;DHT22;4690;52.422;13.486;2022-08-16T14:17:37;30.20;99.90
9305;DHT22;4690;52.422;13.486;2022-08-16T14:20:04;30.10;99.90
9305;DHT22;4690;52.422;13.486;2022-08-16T14:22:34;30.10;99.90
9305;DHT22;4690;52.422;13.486;2022-08-16T14:25:06;29.90;99.90
9305;DHT22;4690;52.422;13.486;2022-08-16T14:27:35;29.80;99.90
9305;DHT22;4690;52.422;13.486;2022-08-16T14:30:03;29.90;99.90
9305;DHT22;4690;52.422;13.486;2022-08-16T14:32:31;30.10;99.90
9305;DHT22;4690;52.422;13.486;2022-08-16T14:34:57;30.10;99.90
9305;DHT22;4690;52.422;13.486;2022-08-16T14:37:25;29.80;99.90
9305;DHT22;4690;52.422;13.486;2022-08-16T14:39:51;29.70;99.90
9305;DHT22;4690;52.422;13.486;2022-08-16T14:42:19;29.60;99.90
9305;DHT22;4690;52.422;13.486;2022-08-16T14:44:48;29.60;99.90
9305;DHT22;4690;52.422;13.486;2022-08-16T14:47:15;29.80;99.90
9305;DHT22;4690;52.422;13.486;2022-08-16T14:49:41;30.00;99.90
9305;DHT22;4690;52.422;13.486;2022-08-16T14:52:10;30.20;99.90
9305;DHT22;4690;52.422;13.486;2022-08-16T14:54:43;30.20;99.90
9305;DHT22;4690;52.422;13.486;2022-08-16T14:57:10;30.20;99.90
9305;DHT22;4690;52.422;13.486;2022-08-16T14:59:36;30.40;99.90
9305;DHT22;4690;52.422;13.486;2022-08-16T15:02:02;30.60;99.90
9305;DHT22;4690;52.422;13.486;2022-08-16T15:04:30;30.80;99.90
9305;DHT22;4690;52.422;13.486;2022-08-16T15:06:57;31.00;99.90
9305;DHT22;4690;52.422;13.486;2022-08-16T15:09:23;31.00;99.90
9305;DHT22;4690;52.422;13.486;2022-08-16T15:11:49;30.70;99.90
9305;DHT22;4690;52.422;13.486;2022-08-16T15:14:15;30.70;99.90
9305;DHT22;4690;52.422;13.486;2022-08-16T15:16:41;30.80;99.90
9305;DHT22;4690;52.422;13.486;2022-08-16T15:19:07;30.80;99.90
9305;DHT22;4690;52.422;13.486;2022-08-16T15:21:34;30.80;99.90
9305;DHT22;4690;52.422;13.486;2022-08-16T15:24:00;30.90;99.90
9305;DHT22;4690;52.422;13.486;2022-08-16T15:26:26;31.00;99.90
9305;DHT22;4690;52.422;13.486;2022-08-16T15:28:52;30.90;99.90
9305;DHT22;4690;52.422;13.486;2022-08-16T15:31:18;30.90;99.90
9305;DHT22;4690;52.422;13.486;2022-08-16T15:33:47;30.80;99.90
9305;DHT22;4690;52.422;13.486;2022-08-16T15:36:18;30.70;99.90
9305;DHT22;4690;52.422;13.486;2022-08-16T15:38:48;30.70;99.90
9305;DHT22;4690;52.422;13.486;2022-08-16T15:44:09;30.40;99.90
9305;DHT22;4690;52.422;13.486;2022-08-16T15:46:38;30.20;99.90
9305;DHT22;4690;52.422;13.486;2022-08-16T15:49:04;30.20;99.90
9305;DHT22;4690;52.422;13.486;2022-08-16T15:51:30;30.10;99.90
9305;DHT22;4690;52.422;13.486;2022-08-16T15:53:56;30.10;99.90
9305;DHT22;4690;52.422;13.486;2022-08-16T15:56:22;30.00;99.90
9305;DHT22;4690;52.422;13.486;2022-08-16T15:58:49;30.00;99.90